| time (UTC) | temp F | wind direction | speed MPH | gust MPH | rain 1hr in | rain 24hr in | rain mn in | humidity % | barometer mb |
| 20260506163556 | 45 | 0 | 0.0 | 3.0 | 0.00 | 1.03 | 0.58 | 93 | 1008.0 |
| 20260506163059 | 45 | 342 | 1.0 | 4.0 | 0.00 | 1.03 | 0.58 | 93 | 1008.1 |
| 20260506162554 | 45 | 345 | 0.0 | 4.0 | 0.00 | 1.03 | 0.58 | 93 | 1008.1 |
| 20260506162101 | 45 | 326 | 1.0 | 2.0 | 0.00 | 1.03 | 0.58 | 93 | 1008.1 |
| 20260506161605 | 45 | 0 | 0.0 | 2.0 | 0.00 | 1.03 | 0.58 | 94 | 1008.2 |
| 20260506161057 | 45 | 339 | 0.0 | 2.0 | 0.00 | 1.03 | 0.58 | 94 | 1008.2 |
| 20260506160557 | 45 | 0 | 0.0 | 3.0 | 0.00 | 1.03 | 0.58 | 94 | 1008.2 |
| 20260506160058 | 45 | 0 | 0.0 | 3.0 | 0.00 | 1.03 | 0.58 | 94 | 1008.3 |
| 20260506155558 | 45 | 352 | 0.0 | 2.0 | 0.00 | 1.03 | 0.58 | 93 | 1008.4 |
| 20260506155147 | 45 | 0 | 0.0 | 1.0 | 0.00 | 1.03 | 0.58 | 93 | 1008.4 |
| 20260506154557 | 45 | 339 | 0.0 | 2.0 | 0.00 | 1.03 | 0.58 | 94 | 1008.4 |
| 20260506154057 | 44 | 0 | 0.0 | 3.0 | 0.00 | 1.03 | 0.58 | 93 | 1008.4 |
| 20260506153557 | 44 | 0 | 0.0 | 3.0 | 0.00 | 1.03 | 0.58 | 93 | 1008.6 |
| 20260506153058 | 45 | 359 | 0.0 | 2.0 | 0.00 | 1.03 | 0.58 | 94 | 1008.6 |
| 20260506152557 | 44 | 0 | 0.0 | 1.0 | 0.00 | 1.03 | 0.58 | 94 | 1008.5 |
| 20260506152054 | 44 | 339 | 0.0 | 1.0 | 0.00 | 1.03 | 0.58 | 93 | 1008.5 |
| 20260506151605 | 44 | 340 | 0.0 | 1.0 | 0.00 | 1.03 | 0.58 | 93 | 1008.5 |
| 20260506151054 | 44 | 0 | 0.0 | 1.0 | 0.00 | 1.03 | 0.58 | 93 | 1008.5 |
| 20260506150554 | 44 | 0 | 0.0 | 0.0 | 0.00 | 1.03 | 0.58 | 93 | 1008.3 |
| 20260506150106 | 45 | 0 | 0.0 | 0.0 | 0.00 | 1.03 | 0.58 | 93 | 1008.3 |
| 20260506145555 | 45 | 0 | 0.0 | 0.0 | 0.00 | 1.03 | 0.58 | 94 | 1008.0 |
| 20260506145054 | 44 | 0 | 0.0 | 0.0 | 0.00 | 1.03 | 0.58 | 93 | 1008.0 |
| 20260506144602 | 45 | 0 | 0.0 | 0.0 | 0.00 | 1.03 | 0.58 | 93 | 1008.1 |
| 20260506144056 | 45 | 0 | 0.0 | 0.0 | 0.00 | 1.03 | 0.58 | 94 | 1008.0 |
| 20260506143557 | 45 | 0 | 0.0 | 0.0 | 0.00 | 1.03 | 0.58 | 94 | 1007.9 |
| 20260506143103 | 44 | 0 | 0.0 | 1.0 | 0.00 | 1.03 | 0.58 | 94 | 1007.8 |
| 20260506142553 | 45 | 0 | 0.0 | 1.0 | 0.01 | 1.03 | 0.58 | 94 | 1007.9 |
| 20260506142056 | 44 | 0 | 0.0 | 1.0 | 0.02 | 1.03 | 0.58 | 94 | 1007.9 |
| 20260506141559 | 45 | 330 | 0.0 | 0.0 | 0.02 | 1.03 | 0.58 | 94 | 1007.9 |
| 20260506141057 | 44 | 0 | 0.0 | 2.0 | 0.03 | 1.03 | 0.58 | 94 | 1007.9 |
| 20260506140555 | 44 | 0 | 0.0 | 2.0 | 0.03 | 1.03 | 0.58 | 94 | 1008.0 |
| 20260506140111 | 44 | 0 | 0.0 | 0.0 | 0.03 | 1.03 | 0.58 | 94 | 1007.9 |
| 20260506135554 | 44 | 0 | 0.0 | 0.0 | 0.04 | 1.03 | 0.58 | 94 | 1008.0 |
| 20260506135056 | 44 | 0 | 0.0 | 0.0 | 0.04 | 1.03 | 0.58 | 94 | 1008.0 |
| 20260506134555 | 44 | 0 | 0.0 | 0.0 | 0.05 | 1.03 | 0.58 | 94 | 1008.1 |
| 20260506134056 | 44 | 0 | 0.0 | 0.0 | 0.06 | 1.03 | 0.58 | 94 | 1008.1 |
| 20260506133557 | 43 | 0 | 0.0 | 0.0 | 0.07 | 1.03 | 0.58 | 94 | 1008.1 |
| 20260506133103 | 43 | 0 | 0.0 | 0.0 | 0.08 | 1.03 | 0.58 | 94 | 1008.2 |
| 20260506132554 | 43 | 0 | 0.0 | 0.0 | 0.07 | 1.02 | 0.57 | 94 | 1008.2 |
| 20260506132056 | 43 | 0 | 0.0 | 0.0 | 0.07 | 1.01 | 0.56 | 94 | 1008.2 |
| 20260506131601 | 43 | 0 | 0.0 | 0.0 | 0.08 | 1.01 | 0.56 | 94 | 1008.3 |
| 20260506131056 | 43 | 0 | 0.0 | 0.0 | 0.07 | 1.00 | 0.55 | 94 | 1008.5 |
| 20260506130557 | 43 | 0 | 0.0 | 0.0 | 0.08 | 1.00 | 0.55 | 94 | 1008.3 |
| 20260506130126 | 43 | 0 | 0.0 | 0.0 | 0.08 | 1.00 | 0.55 | 94 | 1008.2 |
| 20260506125602 | 43 | 0 | 0.0 | 0.0 | 0.07 | 0.99 | 0.54 | 94 | 1008.4 |
| 20260506125057 | 43 | 0 | 0.0 | 0.0 | 0.07 | 0.99 | 0.54 | 94 | 1008.3 |
| 20260506124556 | 43 | 0 | 0.0 | 0.0 | 0.07 | 0.98 | 0.52 | 94 | 1008.5 |
| 20260506124132 | 43 | 0 | 0.0 | 0.0 | 0.06 | 0.97 | 0.52 | 94 | 1008.3 |
| 20260506123558 | 43 | 0 | 0.0 | 0.0 | 0.05 | 0.96 | 0.51 | 93 | 1008.4 |
| 20260506123059 | 43 | 0 | 0.0 | 0.0 | 0.05 | 0.95 | 0.50 | 93 | 1008.3 |
| 20260506122555 | 43 | 0 | 0.0 | 0.0 | 0.05 | 0.95 | 0.50 | 93 | 1008.5 |
| 20260506122056 | 43 | 0 | 0.0 | 0.0 | 0.05 | 0.94 | 0.49 | 93 | 1008.2 |
| 20260506121603 | 43 | 0 | 0.0 | 0.0 | 0.04 | 0.93 | 0.48 | 93 | 1008.0 |
| 20260506121056 | 43 | 0 | 0.0 | 2.0 | 0.05 | 0.93 | 0.48 | 94 | 1008.0 |
| 20260506120556 | 43 | 0 | 0.0 | 2.0 | 0.05 | 0.92 | 0.47 | 94 | 1008.1 |
| 20260506120100 | 43 | 0 | 0.0 | 2.0 | 0.06 | 0.92 | 0.47 | 93 | 1008.0 |
| 20260506115557 | 43 | 0 | 0.0 | 0.0 | 0.07 | 0.92 | 0.47 | 93 | 1007.9 |
| 20260506115055 | 43 | 0 | 0.0 | 0.0 | 0.08 | 0.92 | 0.47 | 93 | 1008.0 |
| 20260506114557 | 43 | 0 | 0.0 | 0.0 | 0.08 | 0.91 | 0.46 | 93 | 1008.1 |
| 20260506114057 | 43 | 0 | 0.0 | 0.0 | 0.11 | 0.91 | 0.46 | 93 | 1008.2 |
| 20260506113555 | 43 | 0 | 0.0 | 0.0 | 0.13 | 0.91 | 0.46 | 93 | 1008.4 |
| 20260506113108 | 43 | 0 | 0.0 | 0.0 | 0.13 | 0.90 | 0.45 | 93 | 1008.6 |
| 20260506112555 | 43 | 0 | 0.0 | 0.0 | 0.13 | 0.90 | 0.45 | 93 | 1008.5 |
| 20260506112056 | 43 | 0 | 0.0 | 0.0 | 0.12 | 0.89 | 0.44 | 93 | 1008.3 |
| 20260506111557 | 43 | 0 | 0.0 | 0.0 | 0.13 | 0.89 | 0.44 | 93 | 1008.3 |
| 20260506111056 | 43 | 0 | 0.0 | 0.0 | 0.12 | 0.88 | 0.43 | 93 | 1008.5 |
| 20260506110557 | 43 | 0 | 0.0 | 1.0 | 0.12 | 0.87 | 0.42 | 93 | 1008.5 |
| 20260506105558 | 43 | 335 | 0.0 | 1.0 | 0.11 | 0.85 | 0.40 | 93 | 1008.9 |
| 20260506105056 | 43 | 0 | 0.0 | 1.0 | 0.11 | 0.84 | 0.39 | 93 | 1008.8 |
| 20260506104616 | 43 | 0 | 0.0 | 1.0 | 0.09 | 0.82 | 0.37 | 93 | 1009.0 |
| 20260506104054 | 43 | 0 | 0.0 | 1.0 | 0.07 | 0.80 | 0.35 | 93 | 1009.0 |
| 20260506103554 | 43 | 0 | 0.0 | 0.0 | 0.05 | 0.78 | 0.33 | 93 | 1009.0 |
| 20260506103055 | 43 | 0 | 0.0 | 0.0 | 0.04 | 0.77 | 0.32 | 93 | 1008.6 |
| 20260506102555 | 43 | 0 | 0.0 | 0.0 | 0.05 | 0.77 | 0.32 | 93 | 1008.4 |
| 20260506102057 | 43 | 0 | 0.0 | 0.0 | 0.05 | 0.77 | 0.32 | 93 | 1008.1 |
| 20260506101603 | 43 | 0 | 0.0 | 0.0 | 0.05 | 0.76 | 0.31 | 93 | 1008.1 |
| 20260506101057 | 43 | 0 | 0.0 | 0.0 | 0.05 | 0.76 | 0.31 | 93 | 1008.1 |
| 20260506100559 | 43 | 0 | 0.0 | 0.0 | 0.05 | 0.75 | 0.30 | 93 | 1008.2 |
| 20260506100054 | 43 | 0 | 0.0 | 1.0 | 0.04 | 0.74 | 0.29 | 93 | 1008.5 |
| 20260506095559 | 43 | 0 | 0.0 | 2.0 | 0.04 | 0.74 | 0.29 | 93 | 1008.1 |
| 20260506095055 | 43 | 0 | 0.0 | 2.0 | 0.04 | 0.73 | 0.28 | 93 | 1008.1 |
| 20260506094600 | 43 | 0 | 0.0 | 2.0 | 0.04 | 0.73 | 0.28 | 93 | 1007.7 |
| 20260506094054 | 43 | 0 | 0.0 | 0.0 | 0.05 | 0.73 | 0.28 | 93 | 1007.7 |
| 20260506093554 | 43 | 0 | 0.0 | 0.0 | 0.05 | 0.73 | 0.28 | 93 | 1007.9 |
| 20260506093106 | 43 | 0 | 0.0 | 0.0 | 0.06 | 0.73 | 0.28 | 93 | 1007.8 |
| 20260506092554 | 43 | 0 | 0.0 | 0.0 | 0.05 | 0.72 | 0.27 | 93 | 1008.3 |
| 20260506092055 | 43 | 0 | 0.0 | 1.0 | 0.06 | 0.72 | 0.27 | 93 | 1008.5 |
| 20260506091559 | 43 | 0 | 0.0 | 1.0 | 0.06 | 0.71 | 0.26 | 93 | 1008.5 |
| 20260506091055 | 43 | 0 | 0.0 | 1.0 | 0.07 | 0.71 | 0.26 | 93 | 1008.7 |
| 20260506090604 | 43 | 0 | 0.0 | 0.0 | 0.06 | 0.70 | 0.25 | 93 | 1009.0 |
| 20260506085557 | 43 | 0 | 0.0 | 0.0 | 0.07 | 0.70 | 0.25 | 93 | 1009.1 |
| 20260506085055 | 43 | 0 | 0.0 | 0.0 | 0.06 | 0.69 | 0.24 | 93 | 1009.2 |
| 20260506084556 | 43 | 0 | 0.0 | 0.0 | 0.07 | 0.69 | 0.24 | 93 | 1009.2 |
| 20260506084055 | 43 | 0 | 0.0 | 0.0 | 0.07 | 0.68 | 0.23 | 93 | 1009.1 |
| 20260506083555 | 43 | 0 | 0.0 | 0.0 | 0.07 | 0.68 | 0.23 | 93 | 1009.0 |
| 20260506083056 | 43 | 0 | 0.0 | 0.0 | 0.08 | 0.67 | 0.22 | 93 | 1009.0 |
| 20260506082558 | 43 | 0 | 0.0 | 0.0 | 0.10 | 0.67 | 0.22 | 93 | 1008.8 |
| 20260506082057 | 43 | 0 | 0.0 | 0.0 | 0.09 | 0.66 | 0.21 | 93 | 1008.9 |
| 20260506081556 | 43 | 0 | 0.0 | 0.0 | 0.08 | 0.65 | 0.20 | 93 | 1008.7 |
| 20260506081054 | 43 | 0 | 0.0 | 0.0 | 0.07 | 0.64 | 0.19 | 92 | 1008.6 |
| 20260506080555 | 43 | 0 | 0.0 | 0.0 | 0.08 | 0.64 | 0.19 | 92 | 1008.9 |
| 20260506073104 | 45 | 0 | 0.0 | 2.0 | 0.04 | 0.58 | 0.14 | 92 | 1009.0 |
| 20260506072556 | 46 | 83 | 0.0 | 1.0 | 0.02 | 0.57 | 0.12 | 92 | 1009.2 |
| 20260506072059 | 46 | 0 | 0.0 | 3.0 | 0.02 | 0.57 | 0.12 | 92 | 1008.9 |
| 20260506071611 | 46 | 0 | 0.0 | 3.0 | 0.03 | 0.57 | 0.12 | 92 | 1008.6 |
| 20260506071057 | 46 | 122 | 0.0 | 3.0 | 0.04 | 0.57 | 0.12 | 93 | 1008.5 |
| 20260506070555 | 46 | 0 | 0.0 | 0.0 | 0.03 | 0.56 | 0.11 | 92 | 1008.4 |
| 20260506062052 | 47 | 0 | 0.0 | 0.0 | 0.05 | 0.54 | 0.09 | 93 | 1008.8 |
| 20260506061555 | 47 | 0 | 0.0 | 0.0 | 0.05 | 0.54 | 0.09 | 93 | 1009.1 |
| 20260506061055 | 47 | 0 | 0.0 | 0.0 | 0.04 | 0.52 | 0.08 | 93 | 1009.0 |
| 20260506060557 | 47 | 0 | 0.0 | 0.0 | 0.03 | 0.52 | 0.07 | 92 | 1008.9 |
| 20260506051053 | 47 | 0 | 0.0 | 0.0 | 0.02 | 0.49 | 0.04 | 92 | 1009.9 |
| 20260506050552 | 47 | 0 | 0.0 | 0.0 | 0.02 | 0.49 | 0.04 | 92 | 1009.6 |
| 20260506045052 | 47 | 0 | 0.0 | 0.0 | 0.04 | 0.49 | 0.04 | 92 | 1009.8 |
| 20260506044601 | 47 | 0 | 0.0 | 0.0 | 0.05 | 0.49 | 0.04 | 92 | 1009.6 |
| 20260506044052 | 47 | 0 | 0.0 | 0.0 | 0.06 | 0.49 | 0.04 | 92 | 1010.2 |
| 20260506043553 | 47 | 0 | 0.0 | 0.0 | 0.07 | 0.49 | 0.04 | 92 | 1010.3 |
| 20260506043054 | 47 | 0 | 0.0 | 0.0 | 0.08 | 0.49 | 0.04 | 92 | 1010.1 |
| 20260506042555 | 47 | 0 | 0.0 | 0.0 | 0.08 | 0.49 | 0.04 | 92 | 1010.3 |
| 20260506042055 | 47 | 0 | 0.0 | 0.0 | 0.08 | 0.48 | 0.03 | 92 | 1010.2 |
| 20260506041604 | 47 | 0 | 0.0 | 0.0 | 0.09 | 0.48 | 0.03 | 92 | 1010.1 |
| 20260506041054 | 47 | 0 | 0.0 | 0.0 | 0.08 | 0.47 | 0.02 | 92 | 1009.9 |
| 20260506040552 | 47 | 0 | 0.0 | 0.0 | 0.09 | 0.47 | 0.02 | 92 | 1009.7 |
| 20260506040054 | 47 | 0 | 0.0 | 0.0 | 0.08 | 0.45 | 0.00 | 92 | 1009.6 |
| 20260506035552 | 47 | 0 | 0.0 | 0.0 | 0.09 | 0.45 | 0.45 | 92 | 1010.3 |
| 20260506035054 | 47 | 0 | 0.0 | 0.0 | 0.09 | 0.45 | 0.45 | 92 | 1010.1 |
| 20260506034556 | 47 | 0 | 0.0 | 0.0 | 0.09 | 0.44 | 0.44 | 91 | 1009.7 |
| 20260506034052 | 47 | 0 | 0.0 | 0.0 | 0.09 | 0.43 | 0.43 | 91 | 1009.7 |
| 20260506033556 | 47 | 0 | 0.0 | 0.0 | 0.09 | 0.42 | 0.42 | 91 | 1009.9 |
| 20260506033100 | 47 | 0 | 0.0 | 0.0 | 0.08 | 0.41 | 0.41 | 91 | 1010.1 |
| 20260506032557 | 47 | 0 | 0.0 | 0.0 | 0.09 | 0.41 | 0.41 | 91 | 1009.9 |
| 20260506032057 | 48 | 0 | 0.0 | 0.0 | 0.08 | 0.40 | 0.40 | 91 | 1009.8 |
| 20260506031558 | 47 | 0 | 0.0 | 0.0 | 0.08 | 0.39 | 0.39 | 91 | 1009.9 |
| 20260506031101 | 48 | 0 | 0.0 | 0.0 | 0.10 | 0.39 | 0.39 | 91 | 1010.1 |
| 20260506030600 | 48 | 0 | 0.0 | 0.0 | 0.10 | 0.38 | 0.38 | 91 | 1010.2 |
| 20260506030057 | 48 | 0 | 0.0 | 0.0 | 0.10 | 0.37 | 0.37 | 91 | 1010.2 |
| 20260506025558 | 47 | 0 | 0.0 | 0.0 | 0.10 | 0.36 | 0.36 | 91 | 1010.3 |
| 20260506025057 | 47 | 0 | 0.0 | 0.0 | 0.12 | 0.36 | 0.36 | 91 | 1010.6 |
| 20260506024556 | 47 | 0 | 0.0 | 0.0 | 0.11 | 0.35 | 0.35 | 91 | 1010.5 |
| 20260506024055 | 47 | 0 | 0.0 | 0.0 | 0.11 | 0.34 | 0.34 | 91 | 1010.8 |
| 20260506023556 | 47 | 0 | 0.0 | 0.0 | 0.11 | 0.33 | 0.33 | 91 | 1010.4 |
| 20260506023100 | 48 | 0 | 0.0 | 0.0 | 0.12 | 0.33 | 0.33 | 91 | 1010.6 |
| 20260506022557 | 48 | 0 | 0.0 | 0.0 | 0.12 | 0.32 | 0.32 | 90 | 1010.4 |
| 20260506022056 | 48 | 0 | 0.0 | 0.0 | 0.13 | 0.32 | 0.32 | 90 | 1010.4 |
| 20260506021558 | 48 | 0 | 0.0 | 0.0 | 0.14 | 0.31 | 0.31 | 90 | 1010.8 |
| 20260506021101 | 48 | 0 | 0.0 | 0.0 | 0.13 | 0.29 | 0.29 | 91 | 1010.8 |
| 20260506020556 | 47 | 0 | 0.0 | 0.0 | 0.14 | 0.28 | 0.28 | 90 | 1010.7 |
| 20260506020054 | 47 | 0 | 0.0 | 0.0 | 0.15 | 0.27 | 0.27 | 90 | 1010.5 |
| 20260506015559 | 47 | 0 | 0.0 | 0.0 | 0.15 | 0.26 | 0.26 | 90 | 1010.2 |
| 20260506015056 | 47 | 0 | 0.0 | 0.0 | 0.14 | 0.24 | 0.24 | 90 | 1010.6 |
| 20260506014559 | 47 | 0 | 0.0 | 0.0 | 0.14 | 0.24 | 0.24 | 89 | 1010.1 |
| 20260506014100 | 47 | 0 | 0.0 | 0.0 | 0.13 | 0.23 | 0.23 | 89 | 1010.0 |
| 20260506013555 | 47 | 0 | 0.0 | 0.0 | 0.13 | 0.22 | 0.22 | 89 | 1010.0 |
| 20260506013055 | 48 | 0 | 0.0 | 0.0 | 0.11 | 0.20 | 0.20 | 89 | 1010.1 |
| 20260506012557 | 48 | 0 | 0.0 | 0.0 | 0.12 | 0.20 | 0.20 | 89 | 1010.0 |
| 20260506012054 | 48 | 0 | 0.0 | 0.0 | 0.11 | 0.18 | 0.18 | 89 | 1009.9 |
| 20260506011554 | 48 | 0 | 0.0 | 0.0 | 0.10 | 0.17 | 0.17 | 89 | 1010.1 |
| 20260506011055 | 48 | 0 | 0.0 | 0.0 | 0.09 | 0.16 | 0.16 | 89 | 1009.7 |
| 20260506010555 | 48 | 0 | 0.0 | 0.0 | 0.09 | 0.14 | 0.14 | 88 | 1010.0 |
| 20260506010057 | 48 | 0 | 0.0 | 0.0 | 0.10 | 0.12 | 0.12 | 88 | 1010.0 |
| 20260506005558 | 48 | 0 | 0.0 | 0.0 | 0.10 | 0.11 | 0.11 | 88 | 1009.8 |
| 20260506005056 | 48 | 0 | 0.0 | 0.0 | 0.09 | 0.10 | 0.10 | 88 | 1009.8 |
| 20260506004558 | 48 | 0 | 0.0 | 0.0 | 0.09 | 0.10 | 0.10 | 87 | 1009.9 |
| 20260506004054 | 48 | 0 | 0.0 | 0.0 | 0.09 | 0.10 | 0.10 | 87 | 1009.9 |
| 20260506003556 | 48 | 0 | 0.0 | 0.0 | 0.08 | 0.09 | 0.09 | 87 | 1010.0 |
| 20260506003056 | 48 | 0 | 0.0 | 0.0 | 0.08 | 0.09 | 0.09 | 86 | 1010.0 |
| 20260506002556 | 48 | 0 | 0.0 | 1.0 | 0.07 | 0.08 | 0.08 | 86 | 1010.1 |
| 20260506002057 | 48 | 0 | 0.0 | 1.0 | 0.06 | 0.07 | 0.07 | 85 | 1009.9 |
| 20260506001620 | 48 | 0 | 0.0 | 3.0 | 0.06 | 0.07 | 0.07 | 85 | 1009.8 |
| 20260506001057 | 49 | 0 | 0.0 | 4.0 | 0.06 | 0.07 | 0.07 | 83 | 1009.3 |
| 20260506000557 | 49 | 0 | 1.0 | 4.0 | 0.04 | 0.05 | 0.05 | 82 | 1009.5 |
| 20260505235557 | 51 | 340 | 3.0 | 6.0 | 0.00 | 0.01 | 0.01 | 76 | 1009.5 |
| 20260505235059 | 52 | 336 | 3.0 | 8.0 | 0.00 | 0.01 | 0.01 | 72 | 1009.4 |
| 20260505234559 | 53 | 333 | 2.0 | 8.0 | 0.00 | 0.01 | 0.01 | 69 | 1009.3 |
| 20260505234059 | 53 | 323 | 2.0 | 8.0 | 0.00 | 0.01 | 0.01 | 68 | 1009.1 |
| 20260505233554 | 54 | 16 | 3.0 | 9.0 | 0.00 | 0.01 | 0.01 | 66 | 1008.7 |
| 20260505233058 | 54 | 309 | 4.0 | 9.0 | 0.00 | 0.01 | 0.01 | 65 | 1008.4 |
| 20260505232555 | 55 | 287 | 4.0 | 9.0 | 0.00 | 0.01 | 0.01 | 64 | 1008.2 |
| 20260505232055 | 56 | 41 | 3.0 | 9.0 | 0.00 | 0.01 | 0.01 | 64 | 1008.2 |
| 20260505231559 | 57 | 46 | 1.0 | 6.0 | 0.00 | 0.01 | 0.01 | 65 | 1008.0 |
| 20260505231054 | 57 | 316 | 3.0 | 12.0 | 0.00 | 0.01 | 0.01 | 65 | 1007.8 |
| 20260505230556 | 58 | 335 | 3.0 | 12.0 | 0.00 | 0.01 | 0.01 | 65 | 1007.7 |
| 20260505230117 | 58 | 352 | 5.0 | 12.0 | 0.00 | 0.01 | 0.01 | 66 | 1007.6 |
| 20260505225557 | 59 | 306 | 4.0 | 8.0 | 0.00 | 0.01 | 0.01 | 65 | 1007.5 |
| 20260505225059 | 59 | 338 | 4.0 | 9.0 | 0.00 | 0.01 | 0.01 | 65 | 1007.2 |
| 20260505224600 | 59 | 338 | 3.0 | 9.0 | 0.00 | 0.01 | 0.01 | 65 | 1007.2 |
| 20260505224057 | 60 | 318 | 3.0 | 9.0 | 0.00 | 0.01 | 0.01 | 65 | 1007.2 |
| 20260505223556 | 60 | 329 | 4.0 | 9.0 | 0.00 | 0.01 | 0.01 | 63 | 1007.1 |
| 20260505223107 | 61 | 323 | 5.0 | 10.0 | 0.00 | 0.01 | 0.01 | 61 | 1007.1 |
| 20260505222557 | 61 | 331 | 3.0 | 10.0 | 0.00 | 0.01 | 0.01 | 59 | 1006.9 |
| 20260505222057 | 62 | 326 | 4.0 | 10.0 | 0.00 | 0.01 | 0.01 | 60 | 1006.7 |
| 20260505221600 | 62 | 326 | 4.0 | 9.0 | 0.00 | 0.01 | 0.01 | 59 | 1006.7 |
| 20260505221054 | 63 | 331 | 2.0 | 12.0 | 0.00 | 0.01 | 0.01 | 60 | 1006.5 |
| 20260505220557 | 63 | 321 | 4.0 | 12.0 | 0.00 | 0.01 | 0.01 | 60 | 1006.3 |
| 20260505220106 | 64 | 345 | 4.0 | 8.0 | 0.00 | 0.01 | 0.01 | 62 | 1006.1 |
| 20260505215557 | 64 | 335 | 3.0 | 6.0 | 0.00 | 0.01 | 0.01 | 62 | 1006.0 |
| 20260505215057 | 64 | 336 | 1.0 | 8.0 | 0.00 | 0.01 | 0.01 | 62 | 1005.7 |
| 20260505214607 | 64 | 295 | 3.0 | 9.0 | 0.00 | 0.01 | 0.01 | 63 | 1005.9 |
| 20260505214057 | 64 | 335 | 2.0 | 9.0 | 0.00 | 0.01 | 0.01 | 63 | 1005.9 |
| 20260505213557 | 64 | 267 | 3.0 | 9.0 | 0.00 | 0.01 | 0.01 | 63 | 1005.9 |
| 20260505213110 | 64 | 339 | 3.0 | 8.0 | 0.00 | 0.01 | 0.01 | 64 | 1005.9 |
| 20260505212557 | 64 | 318 | 3.0 | 8.0 | 0.00 | 0.01 | 0.01 | 64 | 1005.9 |
| 20260505212057 | 63 | 349 | 3.0 | 10.0 | 0.00 | 0.01 | 0.01 | 66 | 1005.7 |
| 20260505211631 | 63 | 345 | 3.0 | 10.0 | 0.00 | 0.01 | 0.01 | 66 | 1005.6 |
| 20260505211057 | 63 | 318 | 3.0 | 10.0 | 0.00 | 0.01 | 0.01 | 67 | 1005.5 |
| 20260505210554 | 63 | 267 | 3.0 | 7.0 | 0.00 | 0.01 | 0.01 | 68 | 1005.5 |
| 20260505210105 | 63 | 335 | 2.0 | 6.0 | 0.00 | 0.01 | 0.01 | 66 | 1005.3 |
| 20260505205555 | 64 | 336 | 3.0 | 12.0 | 0.00 | 0.01 | 0.01 | 66 | 1005.2 |
| 20260505205055 | 64 | 334 | 3.0 | 13.0 | 0.00 | 0.01 | 0.01 | 66 | 1005.1 |
| 20260505204558 | 65 | 326 | 5.0 | 13.0 | 0.00 | 0.01 | 0.01 | 64 | 1005.0 |
| 20260505204057 | 67 | 316 | 4.0 | 10.0 | 0.00 | 0.01 | 0.01 | 63 | 1004.9 |
| 20260505203601 | 67 | 288 | 3.0 | 9.0 | 0.00 | 0.01 | 0.01 | 62 | 1004.8 |
| 20260505203056 | 68 | 320 | 2.0 | 6.0 | 0.00 | 0.01 | 0.01 | 60 | 1004.7 |
| 20260505202557 | 69 | 339 | 3.0 | 10.0 | 0.00 | 0.01 | 0.01 | 58 | 1004.4 |
| 20260505202058 | 70 | 307 | 3.0 | 12.0 | 0.00 | 0.01 | 0.01 | 56 | 1004.5 |
| 20260505201606 | 72 | 348 | 6.0 | 12.0 | 0.00 | 0.01 | 0.01 | 54 | 1004.5 |
| 20260505201057 | 72 | 297 | 5.0 | 11.0 | 0.00 | 0.01 | 0.01 | 54 | 1004.2 |
| 20260505200557 | 72 | 293 | 6.0 | 13.0 | 0.00 | 0.01 | 0.01 | 55 | 1004.5 |
| 20260505200057 | 72 | 279 | 4.0 | 13.0 | 0.00 | 0.01 | 0.01 | 54 | 1004.4 |
| 20260505195557 | 72 | 293 | 5.0 | 12.0 | 0.00 | 0.01 | 0.01 | 53 | 1004.4 |
| 20260505195055 | 72 | 295 | 7.0 | 12.0 | 0.00 | 0.01 | 0.01 | 52 | 1004.4 |
| 20260505194558 | 72 | 285 | 5.0 | 12.0 | 0.00 | 0.01 | 0.01 | 54 | 1004.4 |
| 20260505194100 | 73 | 252 | 5.0 | 10.0 | 0.00 | 0.01 | 0.01 | 55 | 1004.5 |
| 20260505193555 | 73 | 283 | 4.0 | 9.0 | 0.00 | 0.01 | 0.01 | 56 | 1004.5 |
| 20260505193057 | 73 | 260 | 3.0 | 9.0 | 0.00 | 0.01 | 0.01 | 58 | 1004.4 |
| 20260505192601 | 73 | 274 | 4.0 | 9.0 | 0.00 | 0.01 | 0.01 | 58 | 1004.5 |
| 20260505192056 | 73 | 266 | 4.0 | 10.0 | 0.00 | 0.01 | 0.01 | 59 | 1004.4 |
| 20260505191605 | 73 | 245 | 6.0 | 10.0 | 0.00 | 0.01 | 0.01 | 59 | 1004.4 |
| 20260505191057 | 72 | 230 | 4.0 | 8.0 | 0.00 | 0.01 | 0.01 | 58 | 1004.4 |
| 20260505190558 | 72 | 246 | 5.0 | 8.0 | 0.00 | 0.01 | 0.01 | 61 | 1004.3 |
| 20260505190113 | 72 | 265 | 5.0 | 10.0 | 0.00 | 0.01 | 0.01 | 61 | 1004.4 |
| 20260505185557 | 71 | 269 | 5.0 | 10.0 | 0.00 | 0.01 | 0.01 | 61 | 1004.4 |
| 20260505185057 | 71 | 250 | 5.0 | 10.0 | 0.00 | 0.01 | 0.01 | 63 | 1004.4 |
| 20260505184606 | 71 | 170 | 6.0 | 12.0 | 0.01 | 0.01 | 0.01 | 63 | 1004.6 |
| 20260505184057 | 70 | 201 | 6.0 | 14.0 | 0.01 | 0.01 | 0.01 | 64 | 1004.5 |
| 20260505183557 | 69 | 128 | 6.0 | 14.0 | 0.01 | 0.01 | 0.01 | 66 | 1004.5 |
| 20260505183059 | 69 | 212 | 5.0 | 14.0 | 0.01 | 0.01 | 0.01 | 66 | 1004.7 |
| 20260505182557 | 68 | 179 | 8.0 | 14.0 | 0.01 | 0.01 | 0.01 | 67 | 1004.6 |
| 20260505182101 | 68 | 253 | 7.0 | 15.0 | 0.01 | 0.01 | 0.01 | 67 | 1004.7 |
| 20260505181602 | 68 | 229 | 6.0 | 15.0 | 0.01 | 0.01 | 0.01 | 68 | 1004.7 |
| 20260505181057 | 67 | 231 | 8.0 | 15.0 | 0.01 | 0.01 | 0.01 | 68 | 1004.6 |
| 20260505180555 | 67 | 228 | 6.0 | 12.0 | 0.01 | 0.01 | 0.01 | 68 | 1004.4 |
| 20260505180059 | 67 | 239 | 6.0 | 12.0 | 0.01 | 0.01 | 0.01 | 67 | 1004.5 |
| 20260505175556 | 68 | 230 | 6.0 | 15.0 | 0.01 | 0.01 | 0.01 | 67 | 1004.5 |
| 20260505175057 | 69 | 226 | 9.0 | 15.0 | 0.01 | 0.01 | 0.01 | 63 | 1004.5 |
| 20260505174557 | 70 | 250 | 7.0 | 12.0 | 0.00 | 0.00 | 0.00 | 60 | 1004.3 |
| 20260505174056 | 70 | 257 | 3.0 | 7.0 | 0.00 | 0.00 | 0.00 | 61 | 1004.2 |
| 20260505173556 | 70 | 274 | 3.0 | 8.0 | 0.00 | 0.00 | 0.00 | 59 | 1003.8 |
| 20260505173054 | 70 | 285 | 3.0 | 9.0 | 0.00 | 0.00 | 0.00 | 58 | 1003.7 |
| 20260505172557 | 70 | 248 | 3.0 | 9.0 | 0.00 | 0.00 | 0.00 | 58 | 1003.7 |
| 20260505172057 | 71 | 262 | 4.0 | 9.0 | 0.00 | 0.00 | 0.00 | 58 | 1003.7 |
| 20260505171555 | 71 | 288 | 5.0 | 10.0 | 0.00 | 0.00 | 0.00 | 57 | 1003.6 |
| 20260505171058 | 71 | 233 | 5.0 | 10.0 | 0.00 | 0.00 | 0.00 | 57 | 1003.7 |
| 20260505170604 | 72 | 270 | 6.0 | 13.0 | 0.00 | 0.00 | 0.00 | 54 | 1003.7 |
| 20260505170105 | 72 | 259 | 7.0 | 13.0 | 0.00 | 0.00 | 0.00 | 55 | 1003.4 |
| 20260505165557 | 72 | 233 | 6.0 | 11.0 | 0.00 | 0.00 | 0.00 | 54 | 1003.4 |
| 20260505165058 | 72 | 259 | 6.0 | 11.0 | 0.00 | 0.00 | 0.00 | 54 | 1003.4 |
| 20260505164554 | 72 | 258 | 4.0 | 11.0 | 0.00 | 0.00 | 0.00 | 55 | 1003.5 |
| 20260505164055 | 72 | 236 | 6.0 | 13.0 | 0.00 | 0.00 | 0.00 | 53 | 1003.5 |